sensor_id;sensor_type;location;lat;lon;timestamp;pressure;altitude;pressure_sealevel;temperature;humidity
64683;BME280;51107;47.652;19.016;2022-07-22T00:01:56;99956.25;;;24.57;38.33
64683;BME280;51107;47.652;19.016;2022-07-22T00:04:24;99958.81;;;24.52;38.23
64683;BME280;51107;47.652;19.016;2022-07-22T00:06:52;99961.94;;;24.49;38.08
64683;BME280;51107;47.652;19.016;2022-07-22T00:09:21;99951.97;;;24.56;38.54
64683;BME280;51107;47.652;19.016;2022-07-22T00:11:49;99954.16;;;24.59;38.50
64683;BME280;51107;47.652;19.016;2022-07-22T00:14:17;99948.34;;;24.33;38.99
64683;BME280;51107;47.652;19.016;2022-07-22T00:16:46;99949.16;;;24.34;39.15
64683;BME280;51107;47.652;19.016;2022-07-22T00:19:14;99950.38;;;24.55;38.51
64683;BME280;51107;47.652;19.016;2022-07-22T00:21:42;99959.53;;;24.47;39.02
64683;BME280;51107;47.652;19.016;2022-07-22T00:24:11;99952.66;;;24.63;38.72
64683;BME280;51107;47.652;19.016;2022-07-22T00:26:39;99955.87;;;24.65;38.12
64683;BME280;51107;47.652;19.016;2022-07-22T00:29:08;99951.66;;;24.52;37.60
64683;BME280;51107;47.652;19.016;2022-07-22T00:31:36;99950.91;;;24.57;37.34
64683;BME280;51107;47.652;19.016;2022-07-22T00:34:05;99957.66;;;24.48;37.53
64683;BME280;51107;47.652;19.016;2022-07-22T00:36:33;99966.25;;;24.09;38.17
64683;BME280;51107;47.652;19.016;2022-07-22T00:39:03;99963.37;;;23.99;38.10
64683;BME280;51107;47.652;19.016;2022-07-22T00:41:32;99964.97;;;24.12;37.74
64683;BME280;51107;47.652;19.016;2022-07-22T00:44:06;99968.69;;;24.11;37.58
64683;BME280;51107;47.652;19.016;2022-07-22T00:46:36;99971.81;;;24.07;38.04
64683;BME280;51107;47.652;19.016;2022-07-22T00:49:06;99965.13;;;24.34;36.87
64683;BME280;51107;47.652;19.016;2022-07-22T00:51:36;99966.78;;;24.52;36.08
64683;BME280;51107;47.652;19.016;2022-07-22T00:54:06;99965.13;;;24.74;35.44
64683;BME280;51107;47.652;19.016;2022-07-22T00:56:34;99967.03;;;24.62;36.15
64683;BME280;51107;47.652;19.016;2022-07-22T00:59:07;99970.28;;;24.81;35.82
64683;BME280;51107;47.652;19.016;2022-07-22T01:01:36;99962.91;;;25.00;35.27
64683;BME280;51107;47.652;19.016;2022-07-22T01:04:04;99966.34;;;25.01;35.64
64683;BME280;51107;47.652;19.016;2022-07-22T01:06:33;99962.22;;;24.93;35.28
64683;BME280;51107;47.652;19.016;2022-07-22T01:09:01;99957.47;;;24.95;34.82
64683;BME280;51107;47.652;19.016;2022-07-22T01:11:30;99962.06;;;24.83;36.02
64683;BME280;51107;47.652;19.016;2022-07-22T01:13:58;99964.13;;;24.52;36.82
64683;BME280;51107;47.652;19.016;2022-07-22T01:16:27;99965.72;;;24.36;37.60
64683;BME280;51107;47.652;19.016;2022-07-22T01:18:56;99955.31;;;24.34;37.38
64683;BME280;51107;47.652;19.016;2022-07-22T01:21:24;99963.44;;;24.28;37.79
64683;BME280;51107;47.652;19.016;2022-07-22T01:23:53;99961.69;;;24.21;37.52
64683;BME280;51107;47.652;19.016;2022-07-22T01:26:25;99958.00;;;24.22;37.79
64683;BME280;51107;47.652;19.016;2022-07-22T01:28:54;99949.66;;;23.90;39.15
64683;BME280;51107;47.652;19.016;2022-07-22T01:31:23;99949.66;;;23.90;39.59
64683;BME280;51107;47.652;19.016;2022-07-22T01:33:51;99951.38;;;23.61;40.65
64683;BME280;51107;47.652;19.016;2022-07-22T01:36:19;99954.97;;;23.31;41.37
64683;BME280;51107;47.652;19.016;2022-07-22T01:38:49;99951.75;;;23.40;39.94
64683;BME280;51107;47.652;19.016;2022-07-22T01:41:18;99955.28;;;23.58;41.22
64683;BME280;51107;47.652;19.016;2022-07-22T01:43:46;99954.38;;;23.64;40.48
64683;BME280;51107;47.652;19.016;2022-07-22T01:46:15;99953.94;;;23.55;40.85
64683;BME280;51107;47.652;19.016;2022-07-22T01:48:45;99952.44;;;23.60;41.46
64683;BME280;51107;47.652;19.016;2022-07-22T01:51:13;99958.31;;;23.62;40.84
64683;BME280;51107;47.652;19.016;2022-07-22T01:53:41;99956.94;;;23.47;41.36
64683;BME280;51107;47.652;19.016;2022-07-22T01:56:10;99959.34;;;23.61;39.93
64683;BME280;51107;47.652;19.016;2022-07-22T01:58:39;99951.03;;;23.57;40.11
64683;BME280;51107;47.652;19.016;2022-07-22T02:01:08;99960.41;;;23.48;40.90
64683;BME280;51107;47.652;19.016;2022-07-22T02:03:37;99962.81;;;23.37;41.13
64683;BME280;51107;47.652;19.016;2022-07-22T02:06:06;99967.69;;;23.40;39.77
64683;BME280;51107;47.652;19.016;2022-07-22T02:08:35;99968.59;;;23.34;39.88
64683;BME280;51107;47.652;19.016;2022-07-22T02:11:05;99968.81;;;23.21;40.51
64683;BME280;51107;47.652;19.016;2022-07-22T02:13:34;99973.34;;;23.32;41.04
64683;BME280;51107;47.652;19.016;2022-07-22T02:16:03;99969.87;;;23.20;40.85
64683;BME280;51107;47.652;19.016;2022-07-22T02:18:33;99965.09;;;23.10;41.01
64683;BME280;51107;47.652;19.016;2022-07-22T02:21:02;99977.78;;;23.08;41.16
64683;BME280;51107;47.652;19.016;2022-07-22T02:23:30;99982.16;;;23.02;41.24
64683;BME280;51107;47.652;19.016;2022-07-22T02:25:58;99978.44;;;22.92;42.40
64683;BME280;51107;47.652;19.016;2022-07-22T02:28:27;99986.66;;;23.02;41.09
64683;BME280;51107;47.652;19.016;2022-07-22T02:30:55;99978.53;;;22.85;41.98
64683;BME280;51107;47.652;19.016;2022-07-22T02:33:24;99977.59;;;22.79;43.16
64683;BME280;51107;47.652;19.016;2022-07-22T02:35:52;99979.53;;;22.42;43.09
64683;BME280;51107;47.652;19.016;2022-07-22T02:38:22;99978.13;;;22.20;43.92
64683;BME280;51107;47.652;19.016;2022-07-22T02:40:50;99977.75;;;22.17;44.26
64683;BME280;51107;47.652;19.016;2022-07-22T02:43:19;99975.31;;;21.78;45.22
64683;BME280;51107;47.652;19.016;2022-07-22T02:45:48;99971.69;;;21.73;45.94
64683;BME280;51107;47.652;19.016;2022-07-22T02:48:17;99974.06;;;21.81;46.07
64683;BME280;51107;47.652;19.016;2022-07-22T02:50:46;99972.38;;;21.86;45.53
64683;BME280;51107;47.652;19.016;2022-07-22T02:53:15;99976.16;;;21.53;46.03
64683;BME280;51107;47.652;19.016;2022-07-22T02:55:43;99969.56;;;21.63;45.60
64683;BME280;51107;47.652;19.016;2022-07-22T02:58:11;99979.25;;;21.44;45.86
64683;BME280;51107;47.652;19.016;2022-07-22T03:00:40;99974.34;;;21.73;44.60
64683;BME280;51107;47.652;19.016;2022-07-22T03:03:09;99978.41;;;21.75;45.06
64683;BME280;51107;47.652;19.016;2022-07-22T03:05:37;99982.81;;;21.31;46.39
64683;BME280;51107;47.652;19.016;2022-07-22T03:08:08;99987.16;;;21.25;46.65
64683;BME280;51107;47.652;19.016;2022-07-22T03:10:36;99984.50;;;21.25;47.13
64683;BME280;51107;47.652;19.016;2022-07-22T03:13:05;99988.47;;;21.16;46.59
64683;BME280;51107;47.652;19.016;2022-07-22T03:15:34;99994.56;;;21.42;45.63
64683;BME280;51107;47.652;19.016;2022-07-22T03:18:02;99989.50;;;21.65;45.36
64683;BME280;51107;47.652;19.016;2022-07-22T03:20:31;99992.97;;;21.66;45.53
64683;BME280;51107;47.652;19.016;2022-07-22T03:22:59;99990.75;;;21.63;45.92
64683;BME280;51107;47.652;19.016;2022-07-22T03:25:27;99987.31;;;21.81;44.99
64683;BME280;51107;47.652;19.016;2022-07-22T03:27:56;99997.75;;;21.76;45.93
64683;BME280;51107;47.652;19.016;2022-07-22T03:30:24;99992.75;;;21.86;45.24
64683;BME280;51107;47.652;19.016;2022-07-22T03:32:52;99997.53;;;21.59;46.10
64683;BME280;51107;47.652;19.016;2022-07-22T03:35:22;99830.97;;;20.61;46.78
64683;BME280;51107;47.652;19.016;2022-07-22T03:37:50;100001.81;;;21.78;46.39
64683;BME280;51107;47.652;19.016;2022-07-22T03:40:19;100005.84;;;21.62;47.49
64683;BME280;51107;47.652;19.016;2022-07-22T03:42:48;100008.16;;;21.52;49.41
64683;BME280;51107;47.652;19.016;2022-07-22T03:45:16;100007.00;;;21.41;50.57
64683;BME280;51107;47.652;19.016;2022-07-22T03:47:45;100011.00;;;21.57;47.67
64683;BME280;51107;47.652;19.016;2022-07-22T03:50:13;100009.31;;;21.63;49.53
64683;BME280;51107;47.652;19.016;2022-07-22T03:52:42;100012.50;;;21.71;51.39
64683;BME280;51107;47.652;19.016;2022-07-22T03:55:10;100003.66;;;21.78;48.14
64683;BME280;51107;47.652;19.016;2022-07-22T03:57:42;99997.75;;;21.57;48.45
64683;BME280;51107;47.652;19.016;2022-07-22T04:00:11;100001.84;;;21.53;48.65
64683;BME280;51107;47.652;19.016;2022-07-22T04:02:40;100013.72;;;21.44;49.37
64683;BME280;51107;47.652;19.016;2022-07-22T04:05:12;100018.94;;;21.57;49.55
64683;BME280;51107;47.652;19.016;2022-07-22T04:07:40;100021.47;;;21.70;50.72
64683;BME280;51107;47.652;19.016;2022-07-22T04:10:09;100019.94;;;21.81;50.30
64683;BME280;51107;47.652;19.016;2022-07-22T04:12:39;100025.84;;;21.83;49.38
64683;BME280;51107;47.652;19.016;2022-07-22T04:15:10;100021.00;;;21.99;46.96
64683;BME280;51107;47.652;19.016;2022-07-22T04:17:38;100017.69;;;21.60;49.64
64683;BME280;51107;47.652;19.016;2022-07-22T04:20:07;100016.44;;;21.62;50.14
64683;BME280;51107;47.652;19.016;2022-07-22T04:22:36;100018.69;;;21.84;49.08
64683;BME280;51107;47.652;19.016;2022-07-22T04:25:05;100009.94;;;21.83;48.44
64683;BME280;51107;47.652;19.016;2022-07-22T04:27:33;100001.47;;;21.93;49.18
64683;BME280;51107;47.652;19.016;2022-07-22T04:30:03;100006.97;;;21.73;50.77
64683;BME280;51107;47.652;19.016;2022-07-22T04:32:32;100010.97;;;21.82;50.82
64683;BME280;51107;47.652;19.016;2022-07-22T04:35:01;100008.69;;;22.04;49.18
64683;BME280;51107;47.652;19.016;2022-07-22T04:37:30;100003.19;;;22.25;49.29
64683;BME280;51107;47.652;19.016;2022-07-22T04:39:58;100009.91;;;22.46;48.69
64683;BME280;51107;47.652;19.016;2022-07-22T04:42:27;100004.62;;;22.58;48.96
64683;BME280;51107;47.652;19.016;2022-07-22T04:44:55;100008.75;;;22.72;48.45
64683;BME280;51107;47.652;19.016;2022-07-22T04:47:24;100004.38;;;22.78;47.62
64683;BME280;51107;47.652;19.016;2022-07-22T04:49:53;100011.84;;;22.99;48.20
64683;BME280;51107;47.652;19.016;2022-07-22T04:52:22;100007.50;;;23.17;46.68
64683;BME280;51107;47.652;19.016;2022-07-22T04:54:50;100009.72;;;23.32;46.29
64683;BME280;51107;47.652;19.016;2022-07-22T04:57:18;100013.44;;;23.43;45.32
64683;BME280;51107;47.652;19.016;2022-07-22T04:59:47;100015.75;;;23.51;45.85
64683;BME280;51107;47.652;19.016;2022-07-22T05:02:15;100014.97;;;23.50;46.51
64683;BME280;51107;47.652;19.016;2022-07-22T05:04:43;100003.31;;;23.51;46.75
64683;BME280;51107;47.652;19.016;2022-07-22T05:07:13;100011.25;;;23.63;47.03
64683;BME280;51107;47.652;19.016;2022-07-22T05:09:42;100010.69;;;23.73;47.16
64683;BME280;51107;47.652;19.016;2022-07-22T05:12:11;100016.69;;;23.80;47.62
64683;BME280;51107;47.652;19.016;2022-07-22T05:14:39;100011.88;;;23.89;47.25
64683;BME280;51107;47.652;19.016;2022-07-22T05:17:11;100005.72;;;24.00;47.33
64683;BME280;51107;47.652;19.016;2022-07-22T05:19:44;100010.81;;;24.14;47.16
64683;BME280;51107;47.652;19.016;2022-07-22T05:22:12;100012.72;;;24.30;47.30
64683;BME280;51107;47.652;19.016;2022-07-22T05:24:41;100012.00;;;24.47;46.41
64683;BME280;51107;47.652;19.016;2022-07-22T05:27:09;100024.09;;;24.66;45.77
64683;BME280;51107;47.652;19.016;2022-07-22T05:29:38;100019.94;;;24.87;44.38
64683;BME280;51107;47.652;19.016;2022-07-22T05:32:08;100016.19;;;25.00;45.45
64683;BME280;51107;47.652;19.016;2022-07-22T05:34:36;100016.44;;;25.16;45.09
64683;BME280;51107;47.652;19.016;2022-07-22T05:37:04;100018.09;;;25.34;42.06
64683;BME280;51107;47.652;19.016;2022-07-22T05:39:33;100020.59;;;25.57;42.62
64683;BME280;51107;47.652;19.016;2022-07-22T05:42:01;100019.75;;;25.74;38.79
64683;BME280;51107;47.652;19.016;2022-07-22T05:44:30;100024.00;;;25.92;38.73
64683;BME280;51107;47.652;19.016;2022-07-22T05:46:58;100022.47;;;26.13;38.73
64683;BME280;51107;47.652;19.016;2022-07-22T05:49:26;100025.16;;;26.18;39.66
64683;BME280;51107;47.652;19.016;2022-07-22T05:51:55;100023.37;;;26.24;38.07
64683;BME280;51107;47.652;19.016;2022-07-22T05:54:28;100021.16;;;26.38;39.91
64683;BME280;51107;47.652;19.016;2022-07-22T05:56:57;100027.28;;;26.38;42.49
64683;BME280;51107;47.652;19.016;2022-07-22T05:59:25;100026.28;;;26.44;42.28
64683;BME280;51107;47.652;19.016;2022-07-22T06:01:54;100026.16;;;26.56;38.39
64683;BME280;51107;47.652;19.016;2022-07-22T06:04:25;100030.75;;;26.61;37.60
64683;BME280;51107;47.652;19.016;2022-07-22T06:06:53;100024.34;;;26.62;40.36
64683;BME280;51107;47.652;19.016;2022-07-22T06:09:22;100030.44;;;26.80;36.96
64683;BME280;51107;47.652;19.016;2022-07-22T06:11:50;100027.13;;;26.94;36.17
64683;BME280;51107;47.652;19.016;2022-07-22T06:14:18;100028.56;;;27.07;36.73
64683;BME280;51107;47.652;19.016;2022-07-22T06:16:50;100023.91;;;27.25;36.91
64683;BME280;51107;47.652;19.016;2022-07-22T06:19:19;100039.69;;;27.26;34.25
64683;BME280;51107;47.652;19.016;2022-07-22T06:21:47;100033.63;;;27.36;34.19
64683;BME280;51107;47.652;19.016;2022-07-22T06:24:16;100034.91;;;27.34;33.96
64683;BME280;51107;47.652;19.016;2022-07-22T06:26:44;100028.97;;;27.54;34.44
64683;BME280;51107;47.652;19.016;2022-07-22T06:29:12;100027.28;;;27.48;34.48
64683;BME280;51107;47.652;19.016;2022-07-22T06:31:41;100028.34;;;27.46;34.48
64683;BME280;51107;47.652;19.016;2022-07-22T06:34:09;100029.91;;;27.37;50.68
64683;BME280;51107;47.652;19.016;2022-07-22T06:36:38;100034.41;;;26.77;38.86
64683;BME280;51107;47.652;19.016;2022-07-22T06:39:07;100038.41;;;26.52;40.67
64683;BME280;51107;47.652;19.016;2022-07-22T06:41:36;100037.03;;;26.50;39.88
64683;BME280;51107;47.652;19.016;2022-07-22T06:44:08;100039.25;;;26.58;44.31
64683;BME280;51107;47.652;19.016;2022-07-22T06:46:37;100037.28;;;26.70;41.64
64683;BME280;51107;47.652;19.016;2022-07-22T06:49:08;100042.84;;;26.91;44.51
64683;BME280;51107;47.652;19.016;2022-07-22T06:51:41;100040.03;;;27.08;44.51
64683;BME280;51107;47.652;19.016;2022-07-22T06:54:09;100039.12;;;27.24;45.53
64683;BME280;51107;47.652;19.016;2022-07-22T06:56:38;100036.84;;;27.38;41.17
64683;BME280;51107;47.652;19.016;2022-07-22T06:59:06;100039.88;;;27.47;43.50
64683;BME280;51107;47.652;19.016;2022-07-22T07:01:36;100034.31;;;27.54;42.02
64683;BME280;51107;47.652;19.016;2022-07-22T07:04:04;100033.75;;;27.52;39.04
64683;BME280;51107;47.652;19.016;2022-07-22T07:06:34;100034.31;;;27.54;35.32
64683;BME280;51107;47.652;19.016;2022-07-22T07:09:03;100028.75;;;27.60;35.61
64683;BME280;51107;47.652;19.016;2022-07-22T07:11:31;100037.94;;;27.80;38.97
64683;BME280;51107;47.652;19.016;2022-07-22T07:14:01;100029.97;;;27.90;35.97
64683;BME280;51107;47.652;19.016;2022-07-22T07:16:30;100024.72;;;28.06;40.18
64683;BME280;51107;47.652;19.016;2022-07-22T07:18:58;100029.56;;;28.14;38.74
64683;BME280;51107;47.652;19.016;2022-07-22T07:21:30;100029.97;;;28.48;35.86
64683;BME280;51107;47.652;19.016;2022-07-22T07:23:59;100029.00;;;28.86;33.99
64683;BME280;51107;47.652;19.016;2022-07-22T07:26:27;100034.91;;;28.98;36.08
64683;BME280;51107;47.652;19.016;2022-07-22T07:28:56;100023.66;;;28.96;34.78
64683;BME280;51107;47.652;19.016;2022-07-22T07:31:26;100029.31;;;29.15;32.88
64683;BME280;51107;47.652;19.016;2022-07-22T07:33:54;100023.16;;;29.30;33.48
64683;BME280;51107;47.652;19.016;2022-07-22T07:36:23;100022.94;;;30.23;32.05
64683;BME280;51107;47.652;19.016;2022-07-22T07:38:51;100020.75;;;30.30;31.69
64683;BME280;51107;47.652;19.016;2022-07-22T07:41:20;100022.41;;;30.21;29.67
64683;BME280;51107;47.652;19.016;2022-07-22T07:43:50;100019.75;;;30.15;35.27
64683;BME280;51107;47.652;19.016;2022-07-22T07:46:18;100020.16;;;30.48;31.11
64683;BME280;51107;47.652;19.016;2022-07-22T07:48:47;100017.44;;;30.54;28.34
64683;BME280;51107;47.652;19.016;2022-07-22T07:51:16;100018.66;;;30.22;27.33
64683;BME280;51107;47.652;19.016;2022-07-22T07:53:45;100019.72;;;30.21;28.21
64683;BME280;51107;47.652;19.016;2022-07-22T07:56:13;100020.19;;;30.33;26.31
64683;BME280;51107;47.652;19.016;2022-07-22T07:58:42;100021.31;;;30.77;27.51
64683;BME280;51107;47.652;19.016;2022-07-22T08:01:31;100020.34;;;31.02;30.83
64683;BME280;51107;47.652;19.016;2022-07-22T08:04:19;100031.75;;;31.23;28.95
64683;BME280;51107;47.652;19.016;2022-07-22T08:07:04;100017.91;;;31.35;32.44
64683;BME280;51107;47.652;19.016;2022-07-22T08:09:33;100013.31;;;31.06;27.45
64683;BME280;51107;47.652;19.016;2022-07-22T08:12:04;100019.19;;;31.43;31.60
64683;BME280;51107;47.652;19.016;2022-07-22T08:14:35;100017.25;;;31.78;28.89
64683;BME280;51107;47.652;19.016;2022-07-22T08:17:03;100019.72;;;31.74;29.36
64683;BME280;51107;47.652;19.016;2022-07-22T08:19:32;100019.69;;;31.98;28.58
64683;BME280;51107;47.652;19.016;2022-07-22T08:22:02;100005.72;;;32.59;29.43
64683;BME280;51107;47.652;19.016;2022-07-22T08:24:30;100016.59;;;33.25;26.45
64683;BME280;51107;47.652;19.016;2022-07-22T08:26:59;100015.78;;;33.85;26.07
64683;BME280;51107;47.652;19.016;2022-07-22T08:29:28;100014.69;;;33.25;25.53
64683;BME280;51107;47.652;19.016;2022-07-22T08:31:56;100019.16;;;34.18;25.73
64683;BME280;51107;47.652;19.016;2022-07-22T08:34:25;100006.87;;;34.49;23.56
64683;BME280;51107;47.652;19.016;2022-07-22T08:36:53;100007.06;;;35.20;24.32
64683;BME280;51107;47.652;19.016;2022-07-22T08:39:22;100011.31;;;35.35;22.69
64683;BME280;51107;47.652;19.016;2022-07-22T08:41:51;100010.94;;;34.60;23.26
64683;BME280;51107;47.652;19.016;2022-07-22T08:44:19;100010.37;;;33.57;23.01
64683;BME280;51107;47.652;19.016;2022-07-22T08:46:49;100019.66;;;33.65;24.66
64683;BME280;51107;47.652;19.016;2022-07-22T08:49:21;100013.47;;;33.64;23.41
64683;BME280;51107;47.652;19.016;2022-07-22T08:51:50;100010.06;;;34.00;24.34
64683;BME280;51107;47.652;19.016;2022-07-22T08:54:19;100010.84;;;33.73;23.49
64683;BME280;51107;47.652;19.016;2022-07-22T08:56:49;100014.44;;;34.24;27.24
64683;BME280;51107;47.652;19.016;2022-07-22T08:59:18;100010.78;;;34.57;22.98
64683;BME280;51107;47.652;19.016;2022-07-22T09:02:03;100013.63;;;34.74;25.81
64683;BME280;51107;47.652;19.016;2022-07-22T09:04:58;100007.53;;;35.45;23.27
64683;BME280;51107;47.652;19.016;2022-07-22T09:07:48;100009.63;;;34.94;21.80
64683;BME280;51107;47.652;19.016;2022-07-22T09:10:18;100002.03;;;34.60;21.30
64683;BME280;51107;47.652;19.016;2022-07-22T09:12:54;100002.19;;;35.00;24.64
64683;BME280;51107;47.652;19.016;2022-07-22T09:15:39;99998.66;;;35.62;23.11
64683;BME280;51107;47.652;19.016;2022-07-22T09:18:12;100000.47;;;35.76;19.77
64683;BME280;51107;47.652;19.016;2022-07-22T09:20:43;99998.03;;;35.97;22.46
64683;BME280;51107;47.652;19.016;2022-07-22T09:23:16;99994.06;;;36.38;20.78
64683;BME280;51107;47.652;19.016;2022-07-22T09:25:53;99997.69;;;35.49;21.89
64683;BME280;51107;47.652;19.016;2022-07-22T09:28:22;99994.19;;;34.35;21.83
64683;BME280;51107;47.652;19.016;2022-07-22T09:30:59;99989.22;;;35.19;23.66
64683;BME280;51107;47.652;19.016;2022-07-22T09:33:29;99995.72;;;35.41;21.03
64683;BME280;51107;47.652;19.016;2022-07-22T09:36:03;99995.03;;;35.67;20.60
64683;BME280;51107;47.652;19.016;2022-07-22T09:38:33;99985.66;;;35.33;21.37
64683;BME280;51107;47.652;19.016;2022-07-22T09:41:03;99983.88;;;36.52;22.34
64683;BME280;51107;47.652;19.016;2022-07-22T09:43:35;99983.06;;;36.43;19.92
64683;BME280;51107;47.652;19.016;2022-07-22T09:46:04;99983.50;;;35.93;21.43
64683;BME280;51107;47.652;19.016;2022-07-22T09:48:37;99983.22;;;36.38;20.10
64683;BME280;51107;47.652;19.016;2022-07-22T09:51:08;99974.28;;;36.46;20.42
64683;BME280;51107;47.652;19.016;2022-07-22T09:53:39;99971.66;;;37.11;23.93
64683;BME280;51107;47.652;19.016;2022-07-22T09:56:09;99970.13;;;37.40;19.93
64683;BME280;51107;47.652;19.016;2022-07-22T09:58:38;99969.22;;;37.18;20.16
64683;BME280;51107;47.652;19.016;2022-07-22T10:01:16;99966.56;;;37.01;20.81
64683;BME280;51107;47.652;19.016;2022-07-22T10:03:48;99969.81;;;37.42;19.40
64683;BME280;51107;47.652;19.016;2022-07-22T10:06:18;99964.41;;;37.33;21.97
64683;BME280;51107;47.652;19.016;2022-07-22T10:08:50;99958.84;;;37.89;18.29
64683;BME280;51107;47.652;19.016;2022-07-22T10:11:18;99964.66;;;37.49;20.08
64683;BME280;51107;47.652;19.016;2022-07-22T10:13:47;99958.13;;;36.94;20.74
64683;BME280;51107;47.652;19.016;2022-07-22T10:16:16;99963.56;;;37.71;19.92
64683;BME280;51107;47.652;19.016;2022-07-22T10:18:48;99957.75;;;37.13;21.43
64683;BME280;51107;47.652;19.016;2022-07-22T10:21:17;99947.09;;;36.90;22.23
64683;BME280;51107;47.652;19.016;2022-07-22T10:26:52;99941.31;;;37.78;19.92
64683;BME280;51107;47.652;19.016;2022-07-22T10:29:32;99941.53;;;36.78;18.79
64683;BME280;51107;47.652;19.016;2022-07-22T10:40:13;99930.25;;;37.14;22.27
64683;BME280;51107;47.652;19.016;2022-07-22T10:45:34;99926.50;;;37.36;21.23
64683;BME280;51107;47.652;19.016;2022-07-22T10:48:05;99926.53;;;37.58;21.13
64683;BME280;51107;47.652;19.016;2022-07-22T10:56:07;99919.28;;;38.13;21.47
64683;BME280;51107;47.652;19.016;2022-07-22T11:01:09;99917.59;;;36.71;21.10
64683;BME280;51107;47.652;19.016;2022-07-22T11:03:41;99922.53;;;37.34;23.13
64683;BME280;51107;47.652;19.016;2022-07-22T11:06:28;99910.47;;;37.73;21.17
64683;BME280;51107;47.652;19.016;2022-07-22T11:09:06;99893.31;;;37.31;21.38
64683;BME280;51107;47.652;19.016;2022-07-22T11:11:42;99900.44;;;37.95;20.83
64683;BME280;51107;47.652;19.016;2022-07-22T11:14:32;99900.97;;;36.90;22.31
64683;BME280;51107;47.652;19.016;2022-07-22T11:17:09;99897.34;;;36.68;22.36
64683;BME280;51107;47.652;19.016;2022-07-22T11:19:39;99898.03;;;37.04;22.55
64683;BME280;51107;47.652;19.016;2022-07-22T11:22:09;99898.44;;;36.76;22.74
64683;BME280;51107;47.652;19.016;2022-07-22T11:24:39;99893.84;;;36.50;23.66
64683;BME280;51107;47.652;19.016;2022-07-22T11:27:16;99885.41;;;36.52;23.14
64683;BME280;51107;47.652;19.016;2022-07-22T11:29:48;99884.47;;;36.48;23.52
64683;BME280;51107;47.652;19.016;2022-07-22T11:32:23;99887.16;;;36.57;24.07
64683;BME280;51107;47.652;19.016;2022-07-22T11:34:57;99885.53;;;36.64;22.98
64683;BME280;51107;47.652;19.016;2022-07-22T11:37:28;99882.34;;;36.62;23.74
64683;BME280;51107;47.652;19.016;2022-07-22T11:40:05;99879.00;;;36.57;23.15
64683;BME280;51107;47.652;19.016;2022-07-22T11:42:34;99878.41;;;36.33;22.54
64683;BME280;51107;47.652;19.016;2022-07-22T11:45:03;99875.19;;;36.22;23.88
64683;BME280;51107;47.652;19.016;2022-07-22T11:47:32;99873.31;;;36.32;23.49
64683;BME280;51107;47.652;19.016;2022-07-22T11:50:00;99868.22;;;36.21;23.21
64683;BME280;51107;47.652;19.016;2022-07-22T11:52:29;99866.44;;;36.43;23.91
64683;BME280;51107;47.652;19.016;2022-07-22T11:54:57;99857.00;;;36.41;23.66
64683;BME280;51107;47.652;19.016;2022-07-22T11:57:26;99855.75;;;36.20;24.57
64683;BME280;51107;47.652;19.016;2022-07-22T11:59:54;99857.19;;;36.44;24.68
64683;BME280;51107;47.652;19.016;2022-07-22T12:02:22;99857.72;;;36.76;23.18
64683;BME280;51107;47.652;19.016;2022-07-22T12:04:51;99857.25;;;36.65;23.99
64683;BME280;51107;47.652;19.016;2022-07-22T12:07:31;99853.97;;;36.42;23.61
64683;BME280;51107;47.652;19.016;2022-07-22T12:10:01;99845.84;;;36.16;23.68
64683;BME280;51107;47.652;19.016;2022-07-22T12:12:40;99846.38;;;36.09;22.68
64683;BME280;51107;47.652;19.016;2022-07-22T12:15:09;99843.94;;;36.43;23.07
64683;BME280;51107;47.652;19.016;2022-07-22T12:18:17;99843.44;;;36.41;22.09
64683;BME280;51107;47.652;19.016;2022-07-22T12:20:48;99825.44;;;36.27;22.21
64683;BME280;51107;47.652;19.016;2022-07-22T12:23:22;99834.03;;;36.47;22.37
64683;BME280;51107;47.652;19.016;2022-07-22T12:25:59;99833.37;;;36.50;22.55
64683;BME280;51107;47.652;19.016;2022-07-22T12:28:27;99833.37;;;36.50;22.15
64683;BME280;51107;47.652;19.016;2022-07-22T12:30:56;99825.78;;;36.34;23.06
64683;BME280;51107;47.652;19.016;2022-07-22T12:33:24;99834.37;;;36.93;21.57
64683;BME280;51107;47.652;19.016;2022-07-22T12:36:04;99829.88;;;36.49;22.30
64683;BME280;51107;47.652;19.016;2022-07-22T12:38:34;99829.81;;;36.67;22.07
64683;BME280;51107;47.652;19.016;2022-07-22T12:41:27;99815.81;;;36.47;22.17
64683;BME280;51107;47.652;19.016;2022-07-22T12:43:58;99813.13;;;36.30;22.67
64683;BME280;51107;47.652;19.016;2022-07-22T12:46:28;99815.75;;;35.74;24.08
64683;BME280;51107;47.652;19.016;2022-07-22T12:48:56;99813.34;;;35.72;23.60
64683;BME280;51107;47.652;19.016;2022-07-22T12:51:29;99807.31;;;35.93;23.51
64683;BME280;51107;47.652;19.016;2022-07-22T12:53:57;99803.44;;;36.11;23.87
64683;BME280;51107;47.652;19.016;2022-07-22T12:56:27;99803.25;;;36.25;25.10
64683;BME280;51107;47.652;19.016;2022-07-22T12:59:02;99806.19;;;36.67;23.82
64683;BME280;51107;47.652;19.016;2022-07-22T13:01:30;99803.09;;;36.48;24.79
64683;BME280;51107;47.652;19.016;2022-07-22T13:03:59;99797.84;;;36.25;24.08
64683;BME280;51107;47.652;19.016;2022-07-22T13:06:28;99793.50;;;36.42;24.72
64683;BME280;51107;47.652;19.016;2022-07-22T13:08:57;99798.78;;;36.38;23.55
64683;BME280;51107;47.652;19.016;2022-07-22T13:11:25;99785.53;;;36.36;23.65
64683;BME280;51107;47.652;19.016;2022-07-22T13:13:53;99780.72;;;36.51;24.17
64683;BME280;51107;47.652;19.016;2022-07-22T13:16:22;99784.09;;;36.86;23.24
64683;BME280;51107;47.652;19.016;2022-07-22T13:18:51;99781.66;;;36.94;22.96
64683;BME280;51107;47.652;19.016;2022-07-22T13:21:20;99793.38;;;36.77;22.42
64683;BME280;51107;47.652;19.016;2022-07-22T13:23:48;99790.03;;;36.32;23.45